sensor_id;sensor_type;location;lat;lon;timestamp;P1;durP1;ratioP1;P2;durP2;ratioP2
69989;SDS011;57331;52.054;5.294;2022-10-16T00:01:30;6.43;;;2.47;;
69989;SDS011;57331;52.054;5.294;2022-10-16T00:03:57;8.23;;;2.25;;
69989;SDS011;57331;52.054;5.294;2022-10-16T00:06:26;7.85;;;2.10;;
69989;SDS011;57331;52.054;5.294;2022-10-16T00:08:54;9.75;;;2.50;;
69989;SDS011;57331;52.054;5.294;2022-10-16T00:11:23;9.17;;;2.23;;
69989;SDS011;57331;52.054;5.294;2022-10-16T00:13:57;10.32;;;2.88;;
69989;SDS011;57331;52.054;5.294;2022-10-16T00:16:25;8.68;;;2.92;;
69989;SDS011;57331;52.054;5.294;2022-10-16T00:18:53;7.45;;;2.53;;
69989;SDS011;57331;52.054;5.294;2022-10-16T00:21:21;7.95;;;3.03;;
69989;SDS011;57331;52.054;5.294;2022-10-16T00:23:55;6.83;;;2.57;;
69989;SDS011;57331;52.054;5.294;2022-10-16T00:26:26;7.80;;;2.42;;
69989;SDS011;57331;52.054;5.294;2022-10-16T00:28:54;8.10;;;2.90;;
69989;SDS011;57331;52.054;5.294;2022-10-16T00:31:22;14.88;;;3.10;;
69989;SDS011;57331;52.054;5.294;2022-10-16T00:33:50;9.18;;;2.67;;
69989;SDS011;57331;52.054;5.294;2022-10-16T00:36:19;7.17;;;2.43;;
69989;SDS011;57331;52.054;5.294;2022-10-16T00:38:49;9.80;;;2.97;;
69989;SDS011;57331;52.054;5.294;2022-10-16T00:41:30;7.25;;;2.75;;
69989;SDS011;57331;52.054;5.294;2022-10-16T00:43:59;7.55;;;2.67;;
69989;SDS011;57331;52.054;5.294;2022-10-16T00:49:10;6.53;;;2.73;;
69989;SDS011;57331;52.054;5.294;2022-10-16T00:54:13;8.40;;;2.90;;
69989;SDS011;57331;52.054;5.294;2022-10-16T00:56:49;8.85;;;2.80;;
69989;SDS011;57331;52.054;5.294;2022-10-16T00:59:22;7.10;;;2.75;;
69989;SDS011;57331;52.054;5.294;2022-10-16T01:01:52;9.10;;;2.50;;
69989;SDS011;57331;52.054;5.294;2022-10-16T01:04:20;5.85;;;2.58;;
69989;SDS011;57331;52.054;5.294;2022-10-16T01:06:56;8.50;;;3.03;;
69989;SDS011;57331;52.054;5.294;2022-10-16T01:09:43;7.28;;;2.70;;
69989;SDS011;57331;52.054;5.294;2022-10-16T01:15:12;8.23;;;2.67;;
69989;SDS011;57331;52.054;5.294;2022-10-16T01:17:50;8.82;;;3.00;;
69989;SDS011;57331;52.054;5.294;2022-10-16T01:20:29;7.22;;;2.95;;
69989;SDS011;57331;52.054;5.294;2022-10-16T01:27:58;10.27;;;2.63;;
69989;SDS011;57331;52.054;5.294;2022-10-16T01:30:27;7.95;;;2.80;;
69989;SDS011;57331;52.054;5.294;2022-10-16T01:33:00;7.75;;;3.00;;
69989;SDS011;57331;52.054;5.294;2022-10-16T01:35:49;13.48;;;5.40;;
69989;SDS011;57331;52.054;5.294;2022-10-16T01:38:31;8.10;;;2.55;;
69989;SDS011;57331;52.054;5.294;2022-10-16T01:41:06;9.70;;;2.97;;
69989;SDS011;57331;52.054;5.294;2022-10-16T01:43:48;6.25;;;2.60;;
69989;SDS011;57331;52.054;5.294;2022-10-16T01:46:22;8.05;;;3.15;;
69989;SDS011;57331;52.054;5.294;2022-10-16T01:48:50;9.13;;;2.95;;
69989;SDS011;57331;52.054;5.294;2022-10-16T01:51:20;9.32;;;2.90;;
69989;SDS011;57331;52.054;5.294;2022-10-16T01:53:53;6.27;;;2.63;;
69989;SDS011;57331;52.054;5.294;2022-10-16T01:56:21;6.65;;;2.78;;
69989;SDS011;57331;52.054;5.294;2022-10-16T01:59:25;6.25;;;2.85;;
69989;SDS011;57331;52.054;5.294;2022-10-16T02:01:47;8.32;;;3.13;;
69989;SDS011;57331;52.054;5.294;2022-10-16T02:06:47;10.57;;;4.27;;
69989;SDS011;57331;52.054;5.294;2022-10-16T02:09:15;9.32;;;2.78;;
69989;SDS011;57331;52.054;5.294;2022-10-16T02:11:43;10.65;;;3.17;;
69989;SDS011;57331;52.054;5.294;2022-10-16T02:14:10;8.75;;;3.05;;
69989;SDS011;57331;52.054;5.294;2022-10-16T02:16:42;5.88;;;2.83;;
69989;SDS011;57331;52.054;5.294;2022-10-16T02:19:12;6.83;;;3.03;;
69989;SDS011;57331;52.054;5.294;2022-10-16T02:26:51;7.18;;;2.78;;
69989;SDS011;57331;52.054;5.294;2022-10-16T02:29:25;6.55;;;2.70;;
69989;SDS011;57331;52.054;5.294;2022-10-16T02:31:55;7.23;;;2.70;;
69989;SDS011;57331;52.054;5.294;2022-10-16T02:34:26;6.60;;;2.92;;
69989;SDS011;57331;52.054;5.294;2022-10-16T02:36:55;9.20;;;3.50;;
69989;SDS011;57331;52.054;5.294;2022-10-16T02:39:24;8.32;;;2.67;;
69989;SDS011;57331;52.054;5.294;2022-10-16T02:41:54;11.25;;;2.60;;
69989;SDS011;57331;52.054;5.294;2022-10-16T02:44:21;6.23;;;2.73;;
69989;SDS011;57331;52.054;5.294;2022-10-16T02:46:49;9.40;;;2.75;;
69989;SDS011;57331;52.054;5.294;2022-10-16T02:49:16;6.60;;;3.05;;
69989;SDS011;57331;52.054;5.294;2022-10-16T02:51:44;8.35;;;2.67;;
69989;SDS011;57331;52.054;5.294;2022-10-16T02:54:11;6.28;;;3.10;;
69989;SDS011;57331;52.054;5.294;2022-10-16T02:56:39;6.63;;;2.33;;
69989;SDS011;57331;52.054;5.294;2022-10-16T02:59:06;6.65;;;2.55;;
69989;SDS011;57331;52.054;5.294;2022-10-16T03:01:33;9.75;;;2.90;;
69989;SDS011;57331;52.054;5.294;2022-10-16T03:04:02;6.43;;;2.72;;
69989;SDS011;57331;52.054;5.294;2022-10-16T03:06:29;7.53;;;3.28;;
69989;SDS011;57331;52.054;5.294;2022-10-16T03:08:56;7.47;;;2.67;;
69989;SDS011;57331;52.054;5.294;2022-10-16T03:11:23;8.73;;;2.97;;
69989;SDS011;57331;52.054;5.294;2022-10-16T03:13:50;6.38;;;2.58;;
69989;SDS011;57331;52.054;5.294;2022-10-16T03:16:17;5.85;;;2.80;;
69989;SDS011;57331;52.054;5.294;2022-10-16T03:18:47;5.90;;;2.47;;
69989;SDS011;57331;52.054;5.294;2022-10-16T03:21:16;10.93;;;3.67;;
69989;SDS011;57331;52.054;5.294;2022-10-16T03:23:43;5.55;;;2.65;;
69989;SDS011;57331;52.054;5.294;2022-10-16T03:26:10;8.02;;;2.97;;
69989;SDS011;57331;52.054;5.294;2022-10-16T03:28:37;5.95;;;2.45;;
69989;SDS011;57331;52.054;5.294;2022-10-16T03:31:04;7.95;;;2.50;;
69989;SDS011;57331;52.054;5.294;2022-10-16T03:33:31;5.23;;;2.47;;
69989;SDS011;57331;52.054;5.294;2022-10-16T03:35:58;6.63;;;2.67;;
69989;SDS011;57331;52.054;5.294;2022-10-16T03:38:26;7.57;;;3.00;;
69989;SDS011;57331;52.054;5.294;2022-10-16T03:40:53;8.45;;;2.45;;
69989;SDS011;57331;52.054;5.294;2022-10-16T03:43:20;9.95;;;2.33;;
69989;SDS011;57331;52.054;5.294;2022-10-16T03:45:49;4.70;;;2.30;;
69989;SDS011;57331;52.054;5.294;2022-10-16T03:48:17;8.65;;;2.58;;
69989;SDS011;57331;52.054;5.294;2022-10-16T03:50:44;4.43;;;2.42;;
69989;SDS011;57331;52.054;5.294;2022-10-16T03:53:14;6.32;;;2.72;;
69989;SDS011;57331;52.054;5.294;2022-10-16T03:55:41;8.48;;;2.20;;
69989;SDS011;57331;52.054;5.294;2022-10-16T03:58:09;5.60;;;2.60;;
69989;SDS011;57331;52.054;5.294;2022-10-16T04:00:40;4.82;;;2.10;;
69989;SDS011;57331;52.054;5.294;2022-10-16T04:03:11;6.22;;;2.72;;
69989;SDS011;57331;52.054;5.294;2022-10-16T04:05:38;7.38;;;2.92;;
69989;SDS011;57331;52.054;5.294;2022-10-16T04:08:06;5.55;;;2.33;;
69989;SDS011;57331;52.054;5.294;2022-10-16T04:10:33;7.07;;;2.37;;
69989;SDS011;57331;52.054;5.294;2022-10-16T04:13:00;6.45;;;2.40;;
69989;SDS011;57331;52.054;5.294;2022-10-16T04:15:27;5.43;;;2.40;;
69989;SDS011;57331;52.054;5.294;2022-10-16T04:17:54;6.70;;;2.70;;
69989;SDS011;57331;52.054;5.294;2022-10-16T04:20:21;6.25;;;2.33;;
69989;SDS011;57331;52.054;5.294;2022-10-16T04:22:48;5.67;;;2.33;;
69989;SDS011;57331;52.054;5.294;2022-10-16T04:25:15;4.53;;;2.08;;
69989;SDS011;57331;52.054;5.294;2022-10-16T04:27:42;6.90;;;2.60;;
69989;SDS011;57331;52.054;5.294;2022-10-16T04:30:11;5.75;;;2.35;;
69989;SDS011;57331;52.054;5.294;2022-10-16T04:32:39;5.85;;;2.00;;
69989;SDS011;57331;52.054;5.294;2022-10-16T04:35:06;6.07;;;2.40;;
69989;SDS011;57331;52.054;5.294;2022-10-16T04:37:34;5.75;;;2.25;;
69989;SDS011;57331;52.054;5.294;2022-10-16T04:40:01;7.75;;;2.42;;
69989;SDS011;57331;52.054;5.294;2022-10-16T04:42:28;4.55;;;2.20;;
69989;SDS011;57331;52.054;5.294;2022-10-16T04:44:56;9.05;;;2.45;;
69989;SDS011;57331;52.054;5.294;2022-10-16T04:47:23;11.63;;;2.80;;
69989;SDS011;57331;52.054;5.294;2022-10-16T04:49:51;6.47;;;2.30;;
69989;SDS011;57331;52.054;5.294;2022-10-16T04:52:18;5.55;;;2.53;;
69989;SDS011;57331;52.054;5.294;2022-10-16T04:54:47;4.65;;;2.42;;
69989;SDS011;57331;52.054;5.294;2022-10-16T04:57:16;5.38;;;2.55;;
69989;SDS011;57331;52.054;5.294;2022-10-16T04:59:43;5.77;;;2.60;;
69989;SDS011;57331;52.054;5.294;2022-10-16T05:02:10;4.78;;;2.30;;
69989;SDS011;57331;52.054;5.294;2022-10-16T05:04:38;8.30;;;2.50;;
69989;SDS011;57331;52.054;5.294;2022-10-16T05:07:05;6.07;;;2.50;;
69989;SDS011;57331;52.054;5.294;2022-10-16T05:09:32;6.32;;;3.20;;
69989;SDS011;57331;52.054;5.294;2022-10-16T05:12:00;5.87;;;2.60;;
69989;SDS011;57331;52.054;5.294;2022-10-16T05:14:26;7.25;;;2.40;;
69989;SDS011;57331;52.054;5.294;2022-10-16T05:16:53;6.40;;;2.90;;
69989;SDS011;57331;52.054;5.294;2022-10-16T05:19:20;8.80;;;2.47;;
69989;SDS011;57331;52.054;5.294;2022-10-16T05:21:53;8.45;;;3.58;;
69989;SDS011;57331;52.054;5.294;2022-10-16T05:24:20;8.80;;;2.57;;
69989;SDS011;57331;52.054;5.294;2022-10-16T05:26:48;5.95;;;2.80;;
69989;SDS011;57331;52.054;5.294;2022-10-16T05:29:14;11.18;;;2.88;;
69989;SDS011;57331;52.054;5.294;2022-10-16T05:31:42;9.77;;;3.15;;
69989;SDS011;57331;52.054;5.294;2022-10-16T05:34:09;7.78;;;2.78;;
69989;SDS011;57331;52.054;5.294;2022-10-16T05:36:36;6.60;;;2.70;;
69989;SDS011;57331;52.054;5.294;2022-10-16T05:39:03;7.78;;;2.88;;
69989;SDS011;57331;52.054;5.294;2022-10-16T05:41:30;6.38;;;2.80;;
69989;SDS011;57331;52.054;5.294;2022-10-16T05:43:57;8.48;;;2.90;;
69989;SDS011;57331;52.054;5.294;2022-10-16T05:46:25;5.15;;;2.50;;
69989;SDS011;57331;52.054;5.294;2022-10-16T05:48:52;7.37;;;3.10;;
69989;SDS011;57331;52.054;5.294;2022-10-16T05:51:19;8.02;;;3.28;;
69989;SDS011;57331;52.054;5.294;2022-10-16T05:53:46;6.80;;;2.80;;
69989;SDS011;57331;52.054;5.294;2022-10-16T05:56:14;7.18;;;2.88;;
69989;SDS011;57331;52.054;5.294;2022-10-16T05:58:41;8.38;;;3.00;;
69989;SDS011;57331;52.054;5.294;2022-10-16T06:01:12;7.20;;;3.47;;
69989;SDS011;57331;52.054;5.294;2022-10-16T06:03:42;11.45;;;3.20;;
69989;SDS011;57331;52.054;5.294;2022-10-16T06:08:37;7.03;;;2.40;;
69989;SDS011;57331;52.054;5.294;2022-10-16T06:11:06;6.43;;;2.85;;
69989;SDS011;57331;52.054;5.294;2022-10-16T06:13:34;7.97;;;2.90;;
69989;SDS011;57331;52.054;5.294;2022-10-16T06:16:02;6.50;;;2.88;;
69989;SDS011;57331;52.054;5.294;2022-10-16T06:18:30;6.82;;;3.20;;
69989;SDS011;57331;52.054;5.294;2022-10-16T06:20:57;6.05;;;2.97;;
69989;SDS011;57331;52.054;5.294;2022-10-16T06:23:25;8.60;;;2.83;;
69989;SDS011;57331;52.054;5.294;2022-10-16T06:25:54;6.07;;;2.17;;
69989;SDS011;57331;52.054;5.294;2022-10-16T06:28:21;6.78;;;2.85;;
69989;SDS011;57331;52.054;5.294;2022-10-16T06:30:48;6.38;;;3.05;;
69989;SDS011;57331;52.054;5.294;2022-10-16T06:33:15;8.00;;;3.08;;
69989;SDS011;57331;52.054;5.294;2022-10-16T06:35:43;7.38;;;3.13;;
69989;SDS011;57331;52.054;5.294;2022-10-16T06:38:09;10.77;;;3.00;;
69989;SDS011;57331;52.054;5.294;2022-10-16T06:40:37;7.22;;;2.88;;
69989;SDS011;57331;52.054;5.294;2022-10-16T06:43:04;6.18;;;3.25;;
69989;SDS011;57331;52.054;5.294;2022-10-16T06:45:31;8.95;;;3.03;;
69989;SDS011;57331;52.054;5.294;2022-10-16T06:47:58;7.43;;;2.95;;
69989;SDS011;57331;52.054;5.294;2022-10-16T06:50:26;8.63;;;2.73;;
69989;SDS011;57331;52.054;5.294;2022-10-16T06:52:53;7.15;;;3.20;;
69989;SDS011;57331;52.054;5.294;2022-10-16T06:55:20;5.57;;;2.60;;
69989;SDS011;57331;52.054;5.294;2022-10-16T06:57:47;5.35;;;2.53;;
69989;SDS011;57331;52.054;5.294;2022-10-16T07:00:15;6.10;;;2.78;;
69989;SDS011;57331;52.054;5.294;2022-10-16T07:02:42;7.20;;;2.90;;
69989;SDS011;57331;52.054;5.294;2022-10-16T07:05:09;6.07;;;2.75;;
69989;SDS011;57331;52.054;5.294;2022-10-16T07:07:36;9.35;;;3.28;;
69989;SDS011;57331;52.054;5.294;2022-10-16T07:10:03;10.32;;;3.42;;
69989;SDS011;57331;52.054;5.294;2022-10-16T07:12:30;8.70;;;3.60;;
69989;SDS011;57331;52.054;5.294;2022-10-16T07:14:57;7.73;;;2.83;;
69989;SDS011;57331;52.054;5.294;2022-10-16T07:17:25;8.60;;;3.03;;
69989;SDS011;57331;52.054;5.294;2022-10-16T07:19:52;7.45;;;3.10;;
69989;SDS011;57331;52.054;5.294;2022-10-16T07:22:21;6.53;;;2.67;;
69989;SDS011;57331;52.054;5.294;2022-10-16T07:24:49;8.05;;;2.80;;
69989;SDS011;57331;52.054;5.294;2022-10-16T07:27:18;5.80;;;2.57;;
69989;SDS011;57331;52.054;5.294;2022-10-16T07:29:45;8.77;;;2.80;;
69989;SDS011;57331;52.054;5.294;2022-10-16T07:32:12;6.43;;;3.00;;
69989;SDS011;57331;52.054;5.294;2022-10-16T07:34:39;7.57;;;2.65;;
69989;SDS011;57331;52.054;5.294;2022-10-16T07:37:07;7.85;;;3.22;;
69989;SDS011;57331;52.054;5.294;2022-10-16T07:39:34;7.63;;;2.93;;
69989;SDS011;57331;52.054;5.294;2022-10-16T07:42:01;8.45;;;2.80;;
69989;SDS011;57331;52.054;5.294;2022-10-16T07:44:28;8.50;;;2.95;;
69989;SDS011;57331;52.054;5.294;2022-10-16T07:46:56;11.52;;;3.40;;
69989;SDS011;57331;52.054;5.294;2022-10-16T07:49:23;9.20;;;2.97;;
69989;SDS011;57331;52.054;5.294;2022-10-16T07:51:51;10.33;;;3.00;;
69989;SDS011;57331;52.054;5.294;2022-10-16T07:54:18;8.65;;;3.05;;
69989;SDS011;57331;52.054;5.294;2022-10-16T07:56:46;9.50;;;3.47;;
69989;SDS011;57331;52.054;5.294;2022-10-16T07:59:13;6.75;;;2.55;;
69989;SDS011;57331;52.054;5.294;2022-10-16T08:01:41;9.70;;;3.42;;
69989;SDS011;57331;52.054;5.294;2022-10-16T08:04:08;6.53;;;3.40;;
69989;SDS011;57331;52.054;5.294;2022-10-16T08:06:37;7.90;;;3.10;;
69989;SDS011;57331;52.054;5.294;2022-10-16T08:09:06;7.63;;;3.25;;
69989;SDS011;57331;52.054;5.294;2022-10-16T08:11:33;10.68;;;3.95;;
69989;SDS011;57331;52.054;5.294;2022-10-16T08:14:00;9.93;;;3.80;;
69989;SDS011;57331;52.054;5.294;2022-10-16T08:16:27;6.00;;;2.70;;
69989;SDS011;57331;52.054;5.294;2022-10-16T08:18:55;11.93;;;3.30;;
69989;SDS011;57331;52.054;5.294;2022-10-16T08:21:22;11.05;;;3.45;;
69989;SDS011;57331;52.054;5.294;2022-10-16T08:23:50;6.55;;;3.28;;
69989;SDS011;57331;52.054;5.294;2022-10-16T08:26:22;6.22;;;2.97;;
69989;SDS011;57331;52.054;5.294;2022-10-16T08:28:50;10.47;;;2.60;;
69989;SDS011;57331;52.054;5.294;2022-10-16T08:31:18;8.93;;;3.20;;
69989;SDS011;57331;52.054;5.294;2022-10-16T08:33:45;6.88;;;2.72;;
69989;SDS011;57331;52.054;5.294;2022-10-16T08:36:14;5.93;;;2.60;;
69989;SDS011;57331;52.054;5.294;2022-10-16T08:38:42;10.05;;;3.00;;
69989;SDS011;57331;52.054;5.294;2022-10-16T08:44:07;10.77;;;2.90;;
69989;SDS011;57331;52.054;5.294;2022-10-16T08:49:39;7.22;;;2.67;;
69989;SDS011;57331;52.054;5.294;2022-10-16T08:52:12;8.52;;;3.40;;
69989;SDS011;57331;52.054;5.294;2022-10-16T08:54:41;6.70;;;2.60;;
69989;SDS011;57331;52.054;5.294;2022-10-16T08:57:16;7.82;;;2.58;;
69989;SDS011;57331;52.054;5.294;2022-10-16T08:59:49;6.68;;;3.05;;
69989;SDS011;57331;52.054;5.294;2022-10-16T09:13:48;8.65;;;2.63;;
69989;SDS011;57331;52.054;5.294;2022-10-16T09:19:00;6.95;;;2.30;;
69989;SDS011;57331;52.054;5.294;2022-10-16T09:22:10;16.53;;;2.60;;
69989;SDS011;57331;52.054;5.294;2022-10-16T09:24:41;4.75;;;1.90;;
69989;SDS011;57331;52.054;5.294;2022-10-16T09:27:12;7.68;;;2.45;;
69989;SDS011;57331;52.054;5.294;2022-10-16T09:29:40;11.25;;;2.40;;
69989;SDS011;57331;52.054;5.294;2022-10-16T09:32:12;7.40;;;2.10;;
69989;SDS011;57331;52.054;5.294;2022-10-16T09:34:43;8.07;;;2.47;;
69989;SDS011;57331;52.054;5.294;2022-10-16T09:37:14;5.90;;;1.85;;
69989;SDS011;57331;52.054;5.294;2022-10-16T09:39:51;6.30;;;2.33;;
69989;SDS011;57331;52.054;5.294;2022-10-16T09:42:20;8.30;;;2.17;;
69989;SDS011;57331;52.054;5.294;2022-10-16T09:44:57;8.93;;;2.45;;
69989;SDS011;57331;52.054;5.294;2022-10-16T09:47:26;7.57;;;1.63;;
69989;SDS011;57331;52.054;5.294;2022-10-16T09:49:59;10.52;;;2.60;;
69989;SDS011;57331;52.054;5.294;2022-10-16T09:52:30;8.45;;;2.70;;
69989;SDS011;57331;52.054;5.294;2022-10-16T09:54:58;9.48;;;2.45;;
69989;SDS011;57331;52.054;5.294;2022-10-16T09:57:28;9.15;;;2.28;;
69989;SDS011;57331;52.054;5.294;2022-10-16T09:59:57;13.83;;;2.57;;
69989;SDS011;57331;52.054;5.294;2022-10-16T10:02:33;8.73;;;2.58;;
69989;SDS011;57331;52.054;5.294;2022-10-16T10:05:02;10.90;;;2.58;;
69989;SDS011;57331;52.054;5.294;2022-10-16T10:07:32;10.05;;;2.50;;
69989;SDS011;57331;52.054;5.294;2022-10-16T10:10:03;7.78;;;2.20;;
69989;SDS011;57331;52.054;5.294;2022-10-16T10:12:32;10.67;;;2.60;;
69989;SDS011;57331;52.054;5.294;2022-10-16T10:15:11;9.70;;;3.40;;
69989;SDS011;57331;52.054;5.294;2022-10-16T10:17:48;10.80;;;2.22;;
69989;SDS011;57331;52.054;5.294;2022-10-16T10:22:55;16.08;;;2.60;;
69989;SDS011;57331;52.054;5.294;2022-10-16T10:33:25;10.65;;;2.35;;
69989;SDS011;57331;52.054;5.294;2022-10-16T10:50:02;11.55;;;2.60;;
69989;SDS011;57331;52.054;5.294;2022-10-16T11:00:58;10.80;;;2.80;;
69989;SDS011;57331;52.054;5.294;2022-10-16T11:06:10;11.77;;;2.43;;
69989;SDS011;57331;52.054;5.294;2022-10-16T11:08:51;9.90;;;2.78;;
69989;SDS011;57331;52.054;5.294;2022-10-16T11:14:08;12.23;;;2.83;;
69989;SDS011;57331;52.054;5.294;2022-10-16T11:16:47;12.40;;;2.70;;
69989;SDS011;57331;52.054;5.294;2022-10-16T11:19:35;8.30;;;2.60;;
69989;SDS011;57331;52.054;5.294;2022-10-16T11:25:35;7.45;;;2.47;;
69989;SDS011;57331;52.054;5.294;2022-10-16T11:28:27;14.07;;;4.00;;
69989;SDS011;57331;52.054;5.294;2022-10-16T11:30:45;8.13;;;2.22;;
69989;SDS011;57331;52.054;5.294;2022-10-16T11:36:07;14.13;;;3.13;;
69989;SDS011;57331;52.054;5.294;2022-10-16T11:41:50;7.22;;;1.90;;
69989;SDS011;57331;52.054;5.294;2022-10-16T11:48:39;8.53;;;2.40;;
69989;SDS011;57331;52.054;5.294;2022-10-16T11:50:53;7.32;;;2.35;;
69989;SDS011;57331;52.054;5.294;2022-10-16T11:53:49;11.52;;;2.63;;
69989;SDS011;57331;52.054;5.294;2022-10-16T11:56:22;9.00;;;2.65;;
69989;SDS011;57331;52.054;5.294;2022-10-16T11:58:54;14.82;;;2.83;;
69989;SDS011;57331;52.054;5.294;2022-10-16T12:01:30;10.73;;;3.07;;
69989;SDS011;57331;52.054;5.294;2022-10-16T12:09:25;8.80;;;2.55;;
69989;SDS011;57331;52.054;5.294;2022-10-16T12:11:55;8.32;;;2.78;;
69989;SDS011;57331;52.054;5.294;2022-10-16T12:14:43;10.43;;;3.40;;
69989;SDS011;57331;52.054;5.294;2022-10-16T12:17:36;9.48;;;2.80;;
69989;SDS011;57331;52.054;5.294;2022-10-16T12:22:41;7.45;;;2.60;;
69989;SDS011;57331;52.054;5.294;2022-10-16T12:25:21;9.00;;;2.65;;
69989;SDS011;57331;52.054;5.294;2022-10-16T12:27:55;9.10;;;2.87;;
69989;SDS011;57331;52.054;5.294;2022-10-16T12:30:24;13.60;;;2.33;;
69989;SDS011;57331;52.054;5.294;2022-10-16T12:32:58;13.70;;;2.50;;
69989;SDS011;57331;52.054;5.294;2022-10-16T12:35:30;9.50;;;2.45;;
69989;SDS011;57331;52.054;5.294;2022-10-16T12:38:14;11.27;;;2.55;;
69989;SDS011;57331;52.054;5.294;2022-10-16T12:40:46;10.90;;;2.50;;
69989;SDS011;57331;52.054;5.294;2022-10-16T12:43:43;9.88;;;2.80;;
69989;SDS011;57331;52.054;5.294;2022-10-16T12:48:39;12.48;;;3.30;;
69989;SDS011;57331;52.054;5.294;2022-10-16T12:54:00;7.63;;;2.87;;
69989;SDS011;57331;52.054;5.294;2022-10-16T13:07:46;9.70;;;2.40;;
69989;SDS011;57331;52.054;5.294;2022-10-16T13:10:27;9.55;;;2.50;;
69989;SDS011;57331;52.054;5.294;2022-10-16T13:15:53;10.05;;;2.80;;
69989;SDS011;57331;52.054;5.294;2022-10-16T13:18:30;12.30;;;2.85;;
69989;SDS011;57331;52.054;5.294;2022-10-16T13:29:43;10.18;;;2.50;;
69989;SDS011;57331;52.054;5.294;2022-10-16T13:32:10;8.57;;;2.28;;
69989;SDS011;57331;52.054;5.294;2022-10-16T13:34:43;11.13;;;2.10;;
69989;SDS011;57331;52.054;5.294;2022-10-16T13:37:18;9.02;;;2.13;;
69989;SDS011;57331;52.054;5.294;2022-10-16T13:39:46;12.35;;;2.33;;
69989;SDS011;57331;52.054;5.294;2022-10-16T13:42:14;9.55;;;2.28;;
69989;SDS011;57331;52.054;5.294;2022-10-16T13:44:54;9.45;;;2.60;;
69989;SDS011;57331;52.054;5.294;2022-10-16T13:47:23;11.23;;;2.13;;
69989;SDS011;57331;52.054;5.294;2022-10-16T13:49:59;15.85;;;2.40;;
69989;SDS011;57331;52.054;5.294;2022-10-16T13:52:27;12.02;;;2.50;;
69989;SDS011;57331;52.054;5.294;2022-10-16T13:54:55;8.38;;;2.13;;
69989;SDS011;57331;52.054;5.294;2022-10-16T13:57:27;11.18;;;2.50;;
69989;SDS011;57331;52.054;5.294;2022-10-16T13:59:54;10.90;;;2.20;;
69989;SDS011;57331;52.054;5.294;2022-10-16T14:02:25;10.50;;;2.72;;
69989;SDS011;57331;52.054;5.294;2022-10-16T14:05:01;12.95;;;2.55;;
69989;SDS011;57331;52.054;5.294;2022-10-16T14:07:32;9.07;;;2.38;;
69989;SDS011;57331;52.054;5.294;2022-10-16T14:10:05;12.98;;;2.72;;
69989;SDS011;57331;52.054;5.294;2022-10-16T14:12:44;11.37;;;2.40;;
69989;SDS011;57331;52.054;5.294;2022-10-16T14:15:15;11.68;;;1.98;;
69989;SDS011;57331;52.054;5.294;2022-10-16T14:17:45;10.18;;;2.42;;
69989;SDS011;57331;52.054;5.294;2022-10-16T14:20:16;16.50;;;2.20;;
69989;SDS011;57331;52.054;5.294;2022-10-16T14:22:59;11.20;;;2.33;;
69989;SDS011;57331;52.054;5.294;2022-10-16T14:25:50;9.83;;;2.20;;
69989;SDS011;57331;52.054;5.294;2022-10-16T14:28:18;11.43;;;2.30;;
69989;SDS011;57331;52.054;5.294;2022-10-16T14:30:55;11.63;;;2.72;;
69989;SDS011;57331;52.054;5.294;2022-10-16T14:33:24;13.18;;;2.40;;
69989;SDS011;57331;52.054;5.294;2022-10-16T14:39:04;10.43;;;2.60;;
69989;SDS011;57331;52.054;5.294;2022-10-16T14:41:42;12.63;;;3.60;;
69989;SDS011;57331;52.054;5.294;2022-10-16T14:44:12;13.05;;;2.38;;
69989;SDS011;57331;52.054;5.294;2022-10-16T14:46:40;8.68;;;2.50;;
69989;SDS011;57331;52.054;5.294;2022-10-16T14:51:36;11.43;;;2.20;;
69989;SDS011;57331;52.054;5.294;2022-10-16T14:54:09;13.75;;;2.65;;
69989;SDS011;57331;52.054;5.294;2022-10-16T14:56:46;12.15;;;2.55;;
69989;SDS011;57331;52.054;5.294;2022-10-16T14:59:28;11.13;;;2.38;;
69989;SDS011;57331;52.054;5.294;2022-10-16T15:01:58;10.60;;;2.28;;
69989;SDS011;57331;52.054;5.294;2022-10-16T15:04:25;14.57;;;2.30;;
69989;SDS011;57331;52.054;5.294;2022-10-16T15:06:53;11.57;;;2.33;;
69989;SDS011;57331;52.054;5.294;2022-10-16T15:09:20;14.95;;;2.80;;
69989;SDS011;57331;52.054;5.294;2022-10-16T15:11:47;10.68;;;2.40;;
69989;SDS011;57331;52.054;5.294;2022-10-16T15:14:14;10.95;;;2.60;;
69989;SDS011;57331;52.054;5.294;2022-10-16T15:16:45;9.53;;;2.40;;
69989;SDS011;57331;52.054;5.294;2022-10-16T15:19:13;13.52;;;2.75;;
69989;SDS011;57331;52.054;5.294;2022-10-16T15:21:40;13.98;;;2.60;;
69989;SDS011;57331;52.054;5.294;2022-10-16T15:24:08;11.60;;;2.45;;
69989;SDS011;57331;52.054;5.294;2022-10-16T15:26:43;12.05;;;2.95;;
69989;SDS011;57331;52.054;5.294;2022-10-16T15:29:12;13.13;;;3.63;;
69989;SDS011;57331;52.054;5.294;2022-10-16T15:31:39;11.75;;;2.75;;
69989;SDS011;57331;52.054;5.294;2022-10-16T15:34:09;13.30;;;2.63;;
69989;SDS011;57331;52.054;5.294;2022-10-16T15:36:37;14.00;;;2.75;;
69989;SDS011;57331;52.054;5.294;2022-10-16T15:39:05;19.98;;;3.28;;
69989;SDS011;57331;52.054;5.294;2022-10-16T15:41:38;9.63;;;2.27;;
69989;SDS011;57331;52.054;5.294;2022-10-16T15:44:06;15.82;;;4.07;;
69989;SDS011;57331;52.054;5.294;2022-10-16T15:46:33;18.60;;;4.22;;
69989;SDS011;57331;52.054;5.294;2022-10-16T15:49:00;11.15;;;3.53;;
69989;SDS011;57331;52.054;5.294;2022-10-16T15:51:28;13.80;;;4.05;;
69989;SDS011;57331;52.054;5.294;2022-10-16T15:53:59;15.37;;;5.43;;
69989;SDS011;57331;52.054;5.294;2022-10-16T15:56:28;17.63;;;5.20;;
69989;SDS011;57331;52.054;5.294;2022-10-16T15:58:59;20.48;;;6.22;;
69989;SDS011;57331;52.054;5.294;2022-10-16T16:01:26;20.08;;;6.72;;
69989;SDS011;57331;52.054;5.294;2022-10-16T16:03:55;19.65;;;8.23;;
69989;SDS011;57331;52.054;5.294;2022-10-16T16:06:22;23.63;;;9.80;;
69989;SDS011;57331;52.054;5.294;2022-10-16T16:08:50;30.10;;;11.88;;
69989;SDS011;57331;52.054;5.294;2022-10-16T16:11:17;36.17;;;13.57;;
69989;SDS011;57331;52.054;5.294;2022-10-16T16:13:45;48.88;;;16.92;;
69989;SDS011;57331;52.054;5.294;2022-10-16T16:16:12;23.55;;;9.32;;
69989;SDS011;57331;52.054;5.294;2022-10-16T16:18:41;23.20;;;8.27;;
69989;SDS011;57331;52.054;5.294;2022-10-16T16:21:10;17.83;;;7.80;;
69989;SDS011;57331;52.054;5.294;2022-10-16T16:23:38;14.05;;;6.30;;
69989;SDS011;57331;52.054;5.294;2022-10-16T16:26:23;21.50;;;6.50;;
69989;SDS011;57331;52.054;5.294;2022-10-16T16:28:52;13.65;;;4.90;;
69989;SDS011;57331;52.054;5.294;2022-10-16T16:31:23;16.07;;;4.80;;
69989;SDS011;57331;52.054;5.294;2022-10-16T16:33:51;18.38;;;5.65;;
69989;SDS011;57331;52.054;5.294;2022-10-16T16:36:18;17.85;;;5.47;;
69989;SDS011;57331;52.054;5.294;2022-10-16T16:38:45;25.27;;;6.18;;
69989;SDS011;57331;52.054;5.294;2022-10-16T16:41:13;14.85;;;5.80;;
69989;SDS011;57331;52.054;5.294;2022-10-16T16:43:41;14.83;;;5.50;;
69989;SDS011;57331;52.054;5.294;2022-10-16T16:46:09;15.50;;;6.10;;
69989;SDS011;57331;52.054;5.294;2022-10-16T16:48:36;69.95;;;32.50;;
69989;SDS011;57331;52.054;5.294;2022-10-16T16:51:04;28.73;;;11.00;;
69989;SDS011;57331;52.054;5.294;2022-10-16T16:53:36;41.03;;;14.80;;
69989;SDS011;57331;52.054;5.294;2022-10-16T16:56:03;24.43;;;8.10;;
69989;SDS011;57331;52.054;5.294;2022-10-16T16:58:31;17.75;;;7.30;;
69989;SDS011;57331;52.054;5.294;2022-10-16T17:00:59;47.92;;;23.15;;
69989;SDS011;57331;52.054;5.294;2022-10-16T17:03:45;17.35;;;6.57;;
69989;SDS011;57331;52.054;5.294;2022-10-16T17:06:13;17.42;;;5.20;;
69989;SDS011;57331;52.054;5.294;2022-10-16T17:08:42;17.40;;;5.13;;
69989;SDS011;57331;52.054;5.294;2022-10-16T17:11:13;17.08;;;5.45;;
69989;SDS011;57331;52.054;5.294;2022-10-16T17:13:42;15.80;;;6.35;;
69989;SDS011;57331;52.054;5.294;2022-10-16T17:16:09;17.95;;;6.75;;
69989;SDS011;57331;52.054;5.294;2022-10-16T17:18:37;21.58;;;6.57;;